sensor_id;sensor_type;location;lat;lon;timestamp;temperature;humidity
3408;DHT22;1717;50.240;8.406;2022-09-16T00:01:11;15.80;99.90
3408;DHT22;1717;50.240;8.406;2022-09-16T00:03:39;15.70;99.90
3408;DHT22;1717;50.240;8.406;2022-09-16T00:06:06;15.70;99.90
3408;DHT22;1717;50.240;8.406;2022-09-16T00:08:33;15.70;99.90
3408;DHT22;1717;50.240;8.406;2022-09-16T00:11:01;15.70;99.90
3408;DHT22;1717;50.240;8.406;2022-09-16T00:13:28;15.70;99.90
3408;DHT22;1717;50.240;8.406;2022-09-16T00:15:55;15.70;99.90
3408;DHT22;1717;50.240;8.406;2022-09-16T00:18:22;15.60;99.90
3408;DHT22;1717;50.240;8.406;2022-09-16T00:20:50;15.60;99.90
3408;DHT22;1717;50.240;8.406;2022-09-16T00:23:18;15.70;99.90
3408;DHT22;1717;50.240;8.406;2022-09-16T00:25:49;15.50;99.90
3408;DHT22;1717;50.240;8.406;2022-09-16T00:28:18;15.60;99.90
3408;DHT22;1717;50.240;8.406;2022-09-16T00:30:46;15.50;99.90
3408;DHT22;1717;50.240;8.406;2022-09-16T00:33:13;15.50;99.90
3408;DHT22;1717;50.240;8.406;2022-09-16T00:35:39;15.50;99.90
3408;DHT22;1717;50.240;8.406;2022-09-16T00:38:06;15.50;99.90
3408;DHT22;1717;50.240;8.406;2022-09-16T00:40:33;15.50;99.90
3408;DHT22;1717;50.240;8.406;2022-09-16T00:43:00;15.50;99.90
3408;DHT22;1717;50.240;8.406;2022-09-16T00:45:28;15.50;99.90
3408;DHT22;1717;50.240;8.406;2022-09-16T00:47:58;15.40;99.90
3408;DHT22;1717;50.240;8.406;2022-09-16T00:50:29;15.40;99.90
3408;DHT22;1717;50.240;8.406;2022-09-16T00:53:00;15.40;99.90
3408;DHT22;1717;50.240;8.406;2022-09-16T00:55:30;15.40;99.90
3408;DHT22;1717;50.240;8.406;2022-09-16T00:58:03;15.40;99.90
3408;DHT22;1717;50.240;8.406;2022-09-16T01:00:34;15.30;99.90
3408;DHT22;1717;50.240;8.406;2022-09-16T01:03:01;15.30;99.90
3408;DHT22;1717;50.240;8.406;2022-09-16T01:05:28;15.30;99.90
3408;DHT22;1717;50.240;8.406;2022-09-16T01:07:55;15.20;99.90
3408;DHT22;1717;50.240;8.406;2022-09-16T01:10:24;15.20;99.90
3408;DHT22;1717;50.240;8.406;2022-09-16T01:12:54;15.20;99.90
3408;DHT22;1717;50.240;8.406;2022-09-16T01:15:25;15.20;99.90
3408;DHT22;1717;50.240;8.406;2022-09-16T01:18:13;15.20;99.90
3408;DHT22;1717;50.240;8.406;2022-09-16T01:24:30;15.20;99.90
3408;DHT22;1717;50.240;8.406;2022-09-16T01:27:15;15.20;99.90
3408;DHT22;1717;50.240;8.406;2022-09-16T01:30:03;15.20;99.90
3408;DHT22;1717;50.240;8.406;2022-09-16T01:32:40;15.10;99.90
3408;DHT22;1717;50.240;8.406;2022-09-16T01:35:17;15.10;99.90
3408;DHT22;1717;50.240;8.406;2022-09-16T01:37:53;15.10;99.90
3408;DHT22;1717;50.240;8.406;2022-09-16T01:40:27;15.10;99.90
3408;DHT22;1717;50.240;8.406;2022-09-16T01:43:00;15.00;99.90
3408;DHT22;1717;50.240;8.406;2022-09-16T01:45:33;15.00;99.90
3408;DHT22;1717;50.240;8.406;2022-09-16T01:48:08;15.00;99.90
3408;DHT22;1717;50.240;8.406;2022-09-16T01:50:38;15.00;99.90
3408;DHT22;1717;50.240;8.406;2022-09-16T01:53:10;15.00;99.90
3408;DHT22;1717;50.240;8.406;2022-09-16T01:55:41;15.00;99.90
3408;DHT22;1717;50.240;8.406;2022-09-16T01:58:16;15.00;99.90
3408;DHT22;1717;50.240;8.406;2022-09-16T02:00:46;15.10;99.90
3408;DHT22;1717;50.240;8.406;2022-09-16T02:03:17;15.10;99.90
3408;DHT22;1717;50.240;8.406;2022-09-16T02:05:49;15.10;99.90
3408;DHT22;1717;50.240;8.406;2022-09-16T02:08:21;15.10;99.90
3408;DHT22;1717;50.240;8.406;2022-09-16T02:10:50;15.10;99.90
3408;DHT22;1717;50.240;8.406;2022-09-16T02:13:23;15.10;99.90
3408;DHT22;1717;50.240;8.406;2022-09-16T02:15:52;15.20;99.90
3408;DHT22;1717;50.240;8.406;2022-09-16T02:18:25;15.10;99.90
3408;DHT22;1717;50.240;8.406;2022-09-16T02:20:55;15.10;99.90
3408;DHT22;1717;50.240;8.406;2022-09-16T02:23:26;15.10;99.90
3408;DHT22;1717;50.240;8.406;2022-09-16T02:25:57;15.20;99.90
3408;DHT22;1717;50.240;8.406;2022-09-16T02:28:28;15.10;99.90
3408;DHT22;1717;50.240;8.406;2022-09-16T02:30:59;15.10;99.90
3408;DHT22;1717;50.240;8.406;2022-09-16T02:33:32;15.10;99.90
3408;DHT22;1717;50.240;8.406;2022-09-16T02:36:02;15.10;99.90
3408;DHT22;1717;50.240;8.406;2022-09-16T02:38:35;15.10;99.90
3408;DHT22;1717;50.240;8.406;2022-09-16T02:41:04;15.10;99.90
3408;DHT22;1717;50.240;8.406;2022-09-16T02:43:31;15.10;99.90
3408;DHT22;1717;50.240;8.406;2022-09-16T02:46:06;15.10;99.90
3408;DHT22;1717;50.240;8.406;2022-09-16T02:48:46;15.10;99.90
3408;DHT22;1717;50.240;8.406;2022-09-16T02:51:24;15.00;99.90
3408;DHT22;1717;50.240;8.406;2022-09-16T02:53:57;15.00;99.90
3408;DHT22;1717;50.240;8.406;2022-09-16T02:56:29;15.00;99.90
3408;DHT22;1717;50.240;8.406;2022-09-16T02:58:57;15.00;99.90
3408;DHT22;1717;50.240;8.406;2022-09-16T03:01:26;15.00;99.90
3408;DHT22;1717;50.240;8.406;2022-09-16T03:03:55;15.00;99.90
3408;DHT22;1717;50.240;8.406;2022-09-16T03:06:23;15.00;99.90
3408;DHT22;1717;50.240;8.406;2022-09-16T03:08:51;15.00;99.90
3408;DHT22;1717;50.240;8.406;2022-09-16T03:11:33;15.00;99.90
3408;DHT22;1717;50.240;8.406;2022-09-16T03:14:29;15.00;99.90
3408;DHT22;1717;50.240;8.406;2022-09-16T03:17:10;15.00;99.90
3408;DHT22;1717;50.240;8.406;2022-09-16T03:19:50;15.00;99.90
3408;DHT22;1717;50.240;8.406;2022-09-16T03:22:29;15.00;99.90
3408;DHT22;1717;50.240;8.406;2022-09-16T03:25:03;15.00;99.90
3408;DHT22;1717;50.240;8.406;2022-09-16T03:27:36;15.00;99.90
3408;DHT22;1717;50.240;8.406;2022-09-16T03:30:08;15.00;99.90
3408;DHT22;1717;50.240;8.406;2022-09-16T03:32:40;15.00;99.90
3408;DHT22;1717;50.240;8.406;2022-09-16T03:35:13;15.00;99.90
3408;DHT22;1717;50.240;8.406;2022-09-16T03:37:44;15.00;99.90
3408;DHT22;1717;50.240;8.406;2022-09-16T03:40:13;15.00;99.90
3408;DHT22;1717;50.240;8.406;2022-09-16T03:42:42;15.00;99.90
3408;DHT22;1717;50.240;8.406;2022-09-16T03:45:13;14.90;99.90
3408;DHT22;1717;50.240;8.406;2022-09-16T03:47:40;14.90;99.90
3408;DHT22;1717;50.240;8.406;2022-09-16T03:50:09;14.80;99.90
3408;DHT22;1717;50.240;8.406;2022-09-16T03:52:36;14.80;99.90
3408;DHT22;1717;50.240;8.406;2022-09-16T03:55:04;14.80;99.90
3408;DHT22;1717;50.240;8.406;2022-09-16T03:57:31;14.80;99.90
3408;DHT22;1717;50.240;8.406;2022-09-16T03:59:58;14.70;99.90
3408;DHT22;1717;50.240;8.406;2022-09-16T04:02:25;14.70;99.90
3408;DHT22;1717;50.240;8.406;2022-09-16T04:04:52;14.70;99.90
3408;DHT22;1717;50.240;8.406;2022-09-16T04:07:20;14.70;99.90
3408;DHT22;1717;50.240;8.406;2022-09-16T04:09:47;14.70;99.90
3408;DHT22;1717;50.240;8.406;2022-09-16T04:12:13;14.70;99.90
3408;DHT22;1717;50.240;8.406;2022-09-16T04:14:40;14.70;99.90
3408;DHT22;1717;50.240;8.406;2022-09-16T04:17:07;14.70;99.90
3408;DHT22;1717;50.240;8.406;2022-09-16T04:19:34;14.60;99.90
3408;DHT22;1717;50.240;8.406;2022-09-16T04:22:00;14.70;99.90
3408;DHT22;1717;50.240;8.406;2022-09-16T04:24:28;14.70;99.90
3408;DHT22;1717;50.240;8.406;2022-09-16T04:26:55;14.60;99.90
3408;DHT22;1717;50.240;8.406;2022-09-16T04:29:22;14.70;99.90
3408;DHT22;1717;50.240;8.406;2022-09-16T04:31:49;14.70;99.90
3408;DHT22;1717;50.240;8.406;2022-09-16T04:34:16;14.70;99.90
3408;DHT22;1717;50.240;8.406;2022-09-16T04:36:43;14.80;99.90
3408;DHT22;1717;50.240;8.406;2022-09-16T04:39:10;14.70;99.90
3408;DHT22;1717;50.240;8.406;2022-09-16T04:41:38;14.80;99.90
3408;DHT22;1717;50.240;8.406;2022-09-16T04:44:04;14.70;99.90
3408;DHT22;1717;50.240;8.406;2022-09-16T04:46:31;14.80;99.90
3408;DHT22;1717;50.240;8.406;2022-09-16T04:48:59;14.80;99.90
3408;DHT22;1717;50.240;8.406;2022-09-16T04:51:26;14.80;99.90
3408;DHT22;1717;50.240;8.406;2022-09-16T04:53:54;14.80;99.90
3408;DHT22;1717;50.240;8.406;2022-09-16T04:56:23;14.80;99.90
3408;DHT22;1717;50.240;8.406;2022-09-16T04:58:53;14.80;99.90
3408;DHT22;1717;50.240;8.406;2022-09-16T05:01:22;14.80;99.90
3408;DHT22;1717;50.240;8.406;2022-09-16T05:03:51;14.80;99.90
3408;DHT22;1717;50.240;8.406;2022-09-16T05:06:19;14.80;99.90
3408;DHT22;1717;50.240;8.406;2022-09-16T05:08:46;14.90;99.90
3408;DHT22;1717;50.240;8.406;2022-09-16T05:11:14;14.80;99.90
3408;DHT22;1717;50.240;8.406;2022-09-16T05:13:41;14.90;99.90
3408;DHT22;1717;50.240;8.406;2022-09-16T05:16:11;14.80;99.90
3408;DHT22;1717;50.240;8.406;2022-09-16T05:18:40;14.80;99.90
3408;DHT22;1717;50.240;8.406;2022-09-16T05:21:09;14.80;99.90
3408;DHT22;1717;50.240;8.406;2022-09-16T05:23:36;14.80;99.90
3408;DHT22;1717;50.240;8.406;2022-09-16T05:26:05;14.80;99.90
3408;DHT22;1717;50.240;8.406;2022-09-16T05:28:32;14.70;99.90
3408;DHT22;1717;50.240;8.406;2022-09-16T05:31:12;14.70;99.90
3408;DHT22;1717;50.240;8.406;2022-09-16T05:33:40;14.70;99.90
3408;DHT22;1717;50.240;8.406;2022-09-16T05:36:08;14.70;99.90
3408;DHT22;1717;50.240;8.406;2022-09-16T05:38:36;14.80;99.90
3408;DHT22;1717;50.240;8.406;2022-09-16T05:41:03;14.70;99.90
3408;DHT22;1717;50.240;8.406;2022-09-16T05:43:31;14.70;99.90
3408;DHT22;1717;50.240;8.406;2022-09-16T05:45:58;14.70;99.90
3408;DHT22;1717;50.240;8.406;2022-09-16T05:48:26;14.70;99.90
3408;DHT22;1717;50.240;8.406;2022-09-16T05:50:54;14.70;99.90
3408;DHT22;1717;50.240;8.406;2022-09-16T05:53:22;14.60;99.90
3408;DHT22;1717;50.240;8.406;2022-09-16T05:55:57;14.60;99.90
3408;DHT22;1717;50.240;8.406;2022-09-16T05:58:24;14.70;99.90
3408;DHT22;1717;50.240;8.406;2022-09-16T06:00:56;14.70;99.90
3408;DHT22;1717;50.240;8.406;2022-09-16T06:03:23;14.70;99.90
3408;DHT22;1717;50.240;8.406;2022-09-16T06:05:58;14.70;99.90
3408;DHT22;1717;50.240;8.406;2022-09-16T06:08:25;14.70;99.90
3408;DHT22;1717;50.240;8.406;2022-09-16T06:10:53;14.70;99.90
3408;DHT22;1717;50.240;8.406;2022-09-16T06:13:20;14.70;99.90
3408;DHT22;1717;50.240;8.406;2022-09-16T06:15:50;14.70;99.90
3408;DHT22;1717;50.240;8.406;2022-09-16T06:18:19;14.70;99.90
3408;DHT22;1717;50.240;8.406;2022-09-16T06:20:46;14.70;99.90
3408;DHT22;1717;50.240;8.406;2022-09-16T06:23:15;14.60;99.90
3408;DHT22;1717;50.240;8.406;2022-09-16T06:25:42;14.70;99.90
3408;DHT22;1717;50.240;8.406;2022-09-16T06:28:09;14.70;99.90
3408;DHT22;1717;50.240;8.406;2022-09-16T06:30:36;14.70;99.90
3408;DHT22;1717;50.240;8.406;2022-09-16T06:33:04;14.80;99.90
3408;DHT22;1717;50.240;8.406;2022-09-16T06:35:33;14.70;99.90
3408;DHT22;1717;50.240;8.406;2022-09-16T06:38:00;14.80;99.90
3408;DHT22;1717;50.240;8.406;2022-09-16T06:40:28;14.80;99.90
3408;DHT22;1717;50.240;8.406;2022-09-16T06:42:55;14.80;99.90
3408;DHT22;1717;50.240;8.406;2022-09-16T06:45:22;14.80;99.90
3408;DHT22;1717;50.240;8.406;2022-09-16T06:47:49;14.80;99.90
3408;DHT22;1717;50.240;8.406;2022-09-16T06:50:16;14.80;99.90
3408;DHT22;1717;50.240;8.406;2022-09-16T06:52:43;14.90;99.90
3408;DHT22;1717;50.240;8.406;2022-09-16T06:55:10;14.80;99.90
3408;DHT22;1717;50.240;8.406;2022-09-16T06:57:38;14.80;99.90
3408;DHT22;1717;50.240;8.406;2022-09-16T07:00:06;14.80;99.90
3408;DHT22;1717;50.240;8.406;2022-09-16T07:02:34;14.90;99.90
3408;DHT22;1717;50.240;8.406;2022-09-16T07:05:01;14.90;99.90
3408;DHT22;1717;50.240;8.406;2022-09-16T07:07:29;14.80;99.90
3408;DHT22;1717;50.240;8.406;2022-09-16T07:09:56;14.90;99.90
3408;DHT22;1717;50.240;8.406;2022-09-16T07:12:23;14.90;99.90
3408;DHT22;1717;50.240;8.406;2022-09-16T07:14:51;14.90;99.90
3408;DHT22;1717;50.240;8.406;2022-09-16T07:17:18;14.90;99.90
3408;DHT22;1717;50.240;8.406;2022-09-16T07:19:48;14.90;99.90
3408;DHT22;1717;50.240;8.406;2022-09-16T07:22:14;14.90;99.90
3408;DHT22;1717;50.240;8.406;2022-09-16T07:24:41;15.00;99.90
3408;DHT22;1717;50.240;8.406;2022-09-16T07:27:08;15.00;99.90
3408;DHT22;1717;50.240;8.406;2022-09-16T07:29:35;15.00;99.90
3408;DHT22;1717;50.240;8.406;2022-09-16T07:32:03;15.00;99.90
3408;DHT22;1717;50.240;8.406;2022-09-16T07:34:30;15.00;99.90
3408;DHT22;1717;50.240;8.406;2022-09-16T07:36:58;15.10;99.90
3408;DHT22;1717;50.240;8.406;2022-09-16T07:39:25;15.10;99.90
3408;DHT22;1717;50.240;8.406;2022-09-16T07:41:52;15.10;99.90
3408;DHT22;1717;50.240;8.406;2022-09-16T07:44:19;15.10;99.90
3408;DHT22;1717;50.240;8.406;2022-09-16T07:46:48;15.20;99.90
3408;DHT22;1717;50.240;8.406;2022-09-16T07:49:17;15.20;99.90
3408;DHT22;1717;50.240;8.406;2022-09-16T07:51:45;15.20;99.90
3408;DHT22;1717;50.240;8.406;2022-09-16T07:54:13;15.30;99.90
3408;DHT22;1717;50.240;8.406;2022-09-16T07:56:42;15.30;99.90
3408;DHT22;1717;50.240;8.406;2022-09-16T07:59:11;15.30;99.90
3408;DHT22;1717;50.240;8.406;2022-09-16T08:01:39;15.30;99.90
3408;DHT22;1717;50.240;8.406;2022-09-16T08:04:05;15.40;99.90
3408;DHT22;1717;50.240;8.406;2022-09-16T08:06:37;15.40;99.90
3408;DHT22;1717;50.240;8.406;2022-09-16T08:09:04;15.40;99.90
3408;DHT22;1717;50.240;8.406;2022-09-16T08:11:31;15.40;99.90
3408;DHT22;1717;50.240;8.406;2022-09-16T08:13:58;15.40;99.90
3408;DHT22;1717;50.240;8.406;2022-09-16T08:16:25;15.50;99.90
3408;DHT22;1717;50.240;8.406;2022-09-16T08:18:54;15.50;99.90
3408;DHT22;1717;50.240;8.406;2022-09-16T08:21:23;15.50;99.90
3408;DHT22;1717;50.240;8.406;2022-09-16T08:23:51;15.50;99.90
3408;DHT22;1717;50.240;8.406;2022-09-16T08:26:19;15.60;99.90
3408;DHT22;1717;50.240;8.406;2022-09-16T08:28:47;15.60;99.90
3408;DHT22;1717;50.240;8.406;2022-09-16T08:31:15;15.60;99.90
3408;DHT22;1717;50.240;8.406;2022-09-16T08:33:42;15.60;99.90
3408;DHT22;1717;50.240;8.406;2022-09-16T08:36:12;15.70;99.90
3408;DHT22;1717;50.240;8.406;2022-09-16T08:38:40;15.80;99.90
3408;DHT22;1717;50.240;8.406;2022-09-16T08:41:23;15.80;99.90
3408;DHT22;1717;50.240;8.406;2022-09-16T08:44:00;15.80;99.90
3408;DHT22;1717;50.240;8.406;2022-09-16T08:46:33;15.80;99.90
3408;DHT22;1717;50.240;8.406;2022-09-16T08:49:18;15.90;99.90
3408;DHT22;1717;50.240;8.406;2022-09-16T08:51:47;15.80;99.90
3408;DHT22;1717;50.240;8.406;2022-09-16T08:54:25;15.90;99.90
3408;DHT22;1717;50.240;8.406;2022-09-16T08:56:57;15.90;99.90
3408;DHT22;1717;50.240;8.406;2022-09-16T08:59:27;15.80;99.90
3408;DHT22;1717;50.240;8.406;2022-09-16T09:01:57;15.90;99.90
3408;DHT22;1717;50.240;8.406;2022-09-16T09:04:25;15.80;99.90
3408;DHT22;1717;50.240;8.406;2022-09-16T09:06:58;15.80;99.90
3408;DHT22;1717;50.240;8.406;2022-09-16T09:09:40;15.80;99.90
3408;DHT22;1717;50.240;8.406;2022-09-16T09:12:14;15.80;99.90
3408;DHT22;1717;50.240;8.406;2022-09-16T09:14:57;15.80;99.90
3408;DHT22;1717;50.240;8.406;2022-09-16T09:17:36;15.80;99.90
3408;DHT22;1717;50.240;8.406;2022-09-16T09:20:15;15.90;99.90
3408;DHT22;1717;50.240;8.406;2022-09-16T09:22:59;15.90;99.90
3408;DHT22;1717;50.240;8.406;2022-09-16T09:25:36;16.00;99.90
3408;DHT22;1717;50.240;8.406;2022-09-16T09:28:21;16.00;99.90
3408;DHT22;1717;50.240;8.406;2022-09-16T09:30:57;16.00;99.90
3408;DHT22;1717;50.240;8.406;2022-09-16T09:33:38;16.00;99.90
3408;DHT22;1717;50.240;8.406;2022-09-16T09:36:35;16.00;99.90
3408;DHT22;1717;50.240;8.406;2022-09-16T09:39:34;16.10;99.90
3408;DHT22;1717;50.240;8.406;2022-09-16T09:42:10;16.10;99.90
3408;DHT22;1717;50.240;8.406;2022-09-16T09:44:47;16.10;99.90
3408;DHT22;1717;50.240;8.406;2022-09-16T09:47:20;16.10;99.90
3408;DHT22;1717;50.240;8.406;2022-09-16T09:49:50;16.20;99.90
3408;DHT22;1717;50.240;8.406;2022-09-16T09:52:22;16.20;99.90
3408;DHT22;1717;50.240;8.406;2022-09-16T09:54:51;16.30;99.90
3408;DHT22;1717;50.240;8.406;2022-09-16T09:57:24;16.40;99.90
3408;DHT22;1717;50.240;8.406;2022-09-16T09:59:59;16.30;99.90
3408;DHT22;1717;50.240;8.406;2022-09-16T10:02:28;16.40;99.90
3408;DHT22;1717;50.240;8.406;2022-09-16T10:04:55;16.40;99.90
3408;DHT22;1717;50.240;8.406;2022-09-16T10:07:23;16.40;99.90
3408;DHT22;1717;50.240;8.406;2022-09-16T10:09:54;16.50;99.90
3408;DHT22;1717;50.240;8.406;2022-09-16T10:12:26;16.50;99.90
3408;DHT22;1717;50.240;8.406;2022-09-16T10:14:55;16.50;99.90
3408;DHT22;1717;50.240;8.406;2022-09-16T10:17:22;16.60;99.90
3408;DHT22;1717;50.240;8.406;2022-09-16T10:19:52;16.60;99.90
3408;DHT22;1717;50.240;8.406;2022-09-16T10:22:23;16.70;99.90
3408;DHT22;1717;50.240;8.406;2022-09-16T10:24:56;16.70;99.90
3408;DHT22;1717;50.240;8.406;2022-09-16T10:27:25;16.70;99.90
3408;DHT22;1717;50.240;8.406;2022-09-16T10:30:18;16.70;99.90
3408;DHT22;1717;50.240;8.406;2022-09-16T10:32:48;16.70;99.90
3408;DHT22;1717;50.240;8.406;2022-09-16T10:35:22;16.70;99.90
3408;DHT22;1717;50.240;8.406;2022-09-16T10:37:52;16.60;99.90
3408;DHT22;1717;50.240;8.406;2022-09-16T10:40:20;16.60;99.90
3408;DHT22;1717;50.240;8.406;2022-09-16T10:42:49;16.60;99.90
3408;DHT22;1717;50.240;8.406;2022-09-16T10:45:23;16.60;99.90
3408;DHT22;1717;50.240;8.406;2022-09-16T10:47:54;16.70;99.90
3408;DHT22;1717;50.240;8.406;2022-09-16T10:50:22;16.70;99.90
3408;DHT22;1717;50.240;8.406;2022-09-16T10:52:50;16.70;99.90
3408;DHT22;1717;50.240;8.406;2022-09-16T10:55:24;16.80;99.90
3408;DHT22;1717;50.240;8.406;2022-09-16T10:57:53;16.80;99.90
3408;DHT22;1717;50.240;8.406;2022-09-16T11:00:23;16.80;99.90
3408;DHT22;1717;50.240;8.406;2022-09-16T11:06:02;16.80;99.90
3408;DHT22;1717;50.240;8.406;2022-09-16T11:08:42;16.80;99.90
3408;DHT22;1717;50.240;8.406;2022-09-16T11:11:19;16.80;99.90
3408;DHT22;1717;50.240;8.406;2022-09-16T11:13:54;16.80;99.90
3408;DHT22;1717;50.240;8.406;2022-09-16T11:16:47;16.80;99.90
3408;DHT22;1717;50.240;8.406;2022-09-16T11:19:25;16.70;99.90
3408;DHT22;1717;50.240;8.406;2022-09-16T11:22:03;16.70;99.90
3408;DHT22;1717;50.240;8.406;2022-09-16T11:24:46;16.70;99.90
3408;DHT22;1717;50.240;8.406;2022-09-16T11:27:26;16.60;99.90
3408;DHT22;1717;50.240;8.406;2022-09-16T11:30:08;16.60;99.90
3408;DHT22;1717;50.240;8.406;2022-09-16T11:32:53;16.60;99.90
3408;DHT22;1717;50.240;8.406;2022-09-16T11:38:21;16.50;99.90
3408;DHT22;1717;50.240;8.406;2022-09-16T11:40:56;16.50;99.90
3408;DHT22;1717;50.240;8.406;2022-09-16T11:43:52;16.50;99.90
3408;DHT22;1717;50.240;8.406;2022-09-16T11:46:25;16.40;99.90
3408;DHT22;1717;50.240;8.406;2022-09-16T11:52:00;16.40;99.90
3408;DHT22;1717;50.240;8.406;2022-09-16T11:57:23;16.40;99.90
3408;DHT22;1717;50.240;8.406;2022-09-16T11:59:54;16.40;99.90
3408;DHT22;1717;50.240;8.406;2022-09-16T12:02:26;16.30;99.90
3408;DHT22;1717;50.240;8.406;2022-09-16T12:05:00;16.30;99.90
3408;DHT22;1717;50.240;8.406;2022-09-16T12:07:33;16.30;99.90
3408;DHT22;1717;50.240;8.406;2022-09-16T12:10:10;16.30;99.90
3408;DHT22;1717;50.240;8.406;2022-09-16T12:12:42;16.20;99.90
3408;DHT22;1717;50.240;8.406;2022-09-16T12:15:16;16.20;99.90
3408;DHT22;1717;50.240;8.406;2022-09-16T12:17:50;16.20;99.90
3408;DHT22;1717;50.240;8.406;2022-09-16T12:20:22;16.20;99.90
3408;DHT22;1717;50.240;8.406;2022-09-16T12:22:54;16.20;99.90
3408;DHT22;1717;50.240;8.406;2022-09-16T12:25:27;16.30;99.90
3408;DHT22;1717;50.240;8.406;2022-09-16T12:28:00;16.30;99.90
3408;DHT22;1717;50.240;8.406;2022-09-16T12:30:32;16.30;99.90
3408;DHT22;1717;50.240;8.406;2022-09-16T12:33:05;16.40;99.90
3408;DHT22;1717;50.240;8.406;2022-09-16T12:35:38;16.40;99.90
3408;DHT22;1717;50.240;8.406;2022-09-16T12:38:14;16.50;99.90
3408;DHT22;1717;50.240;8.406;2022-09-16T12:40:54;16.50;99.90
3408;DHT22;1717;50.240;8.406;2022-09-16T12:43:38;16.60;99.90
3408;DHT22;1717;50.240;8.406;2022-09-16T12:46:39;16.60;99.90
3408;DHT22;1717;50.240;8.406;2022-09-16T12:49:40;16.70;99.90
3408;DHT22;1717;50.240;8.406;2022-09-16T12:52:31;16.80;99.90
3408;DHT22;1717;50.240;8.406;2022-09-16T13:01:14;17.10;99.90
3408;DHT22;1717;50.240;8.406;2022-09-16T13:03:46;17.30;99.90
3408;DHT22;1717;50.240;8.406;2022-09-16T13:06:21;17.30;99.90
3408;DHT22;1717;50.240;8.406;2022-09-16T13:08:51;17.40;99.90
3408;DHT22;1717;50.240;8.406;2022-09-16T13:11:20;17.50;99.90
3408;DHT22;1717;50.240;8.406;2022-09-16T13:13:50;17.50;99.90
3408;DHT22;1717;50.240;8.406;2022-09-16T13:16:28;17.60;99.90
3408;DHT22;1717;50.240;8.406;2022-09-16T13:21:56;17.80;99.90
3408;DHT22;1717;50.240;8.406;2022-09-16T13:24:30;17.90;99.50
3408;DHT22;1717;50.240;8.406;2022-09-16T13:27:00;18.00;99.90
3408;DHT22;1717;50.240;8.406;2022-09-16T13:29:38;18.00;98.80
3408;DHT22;1717;50.240;8.406;2022-09-16T13:32:23;18.00;98.50
3408;DHT22;1717;50.240;8.406;2022-09-16T13:35:00;18.20;98.90
3408;DHT22;1717;50.240;8.406;2022-09-16T13:37:27;18.20;99.50
3408;DHT22;1717;50.240;8.406;2022-09-16T13:39:56;18.30;98.50
3408;DHT22;1717;50.240;8.406;2022-09-16T13:42:34;18.30;97.00
3408;DHT22;1717;50.240;8.406;2022-09-16T13:45:01;18.40;97.20
3408;DHT22;1717;50.240;8.406;2022-09-16T13:47:30;18.50;96.70
3408;DHT22;1717;50.240;8.406;2022-09-16T13:50:10;18.50;95.50
3408;DHT22;1717;50.240;8.406;2022-09-16T13:52:38;18.60;95.50
3408;DHT22;1717;50.240;8.406;2022-09-16T13:55:19;18.70;95.80
3408;DHT22;1717;50.240;8.406;2022-09-16T13:57:57;18.80;95.80
3408;DHT22;1717;50.240;8.406;2022-09-16T14:00:26;18.90;94.00
3408;DHT22;1717;50.240;8.406;2022-09-16T14:09:10;18.90;90.20
3408;DHT22;1717;50.240;8.406;2022-09-16T14:11:45;18.80;90.50
3408;DHT22;1717;50.240;8.406;2022-09-16T14:14:17;18.40;92.30
3408;DHT22;1717;50.240;8.406;2022-09-16T14:16:46;18.20;92.00
3408;DHT22;1717;50.240;8.406;2022-09-16T14:19:21;18.00;92.20
3408;DHT22;1717;50.240;8.406;2022-09-16T14:21:59;17.80;92.60
3408;DHT22;1717;50.240;8.406;2022-09-16T14:24:33;17.70;93.80
3408;DHT22;1717;50.240;8.406;2022-09-16T14:27:02;17.50;92.80
3408;DHT22;1717;50.240;8.406;2022-09-16T14:29:29;17.40;92.00
3408;DHT22;1717;50.240;8.406;2022-09-16T14:31:57;17.30;93.30
3408;DHT22;1717;50.240;8.406;2022-09-16T14:34:29;17.10;92.80
3408;DHT22;1717;50.240;8.406;2022-09-16T14:36:57;17.20;92.70
3408;DHT22;1717;50.240;8.406;2022-09-16T14:39:26;17.00;92.30
3408;DHT22;1717;50.240;8.406;2022-09-16T14:41:55;16.90;91.90
3408;DHT22;1717;50.240;8.406;2022-09-16T14:44:26;16.80;91.00
3408;DHT22;1717;50.240;8.406;2022-09-16T14:47:00;16.80;90.30
3408;DHT22;1717;50.240;8.406;2022-09-16T14:49:28;16.60;91.80
3408;DHT22;1717;50.240;8.406;2022-09-16T14:51:57;16.20;93.70
3408;DHT22;1717;50.240;8.406;2022-09-16T14:54:25;15.90;95.40
3408;DHT22;1717;50.240;8.406;2022-09-16T14:56:56;15.60;96.10
3408;DHT22;1717;50.240;8.406;2022-09-16T14:59:27;15.40;97.30
3408;DHT22;1717;50.240;8.406;2022-09-16T15:02:06;15.10;98.20
3408;DHT22;1717;50.240;8.406;2022-09-16T15:04:36;14.70;98.90
3408;DHT22;1717;50.240;8.406;2022-09-16T15:07:11;14.40;99.90
3408;DHT22;1717;50.240;8.406;2022-09-16T15:09:43;14.30;99.90
3408;DHT22;1717;50.240;8.406;2022-09-16T15:12:20;14.10;99.90
3408;DHT22;1717;50.240;8.406;2022-09-16T15:14:50;13.90;99.90
3408;DHT22;1717;50.240;8.406;2022-09-16T15:17:20;13.80;99.90
3408;DHT22;1717;50.240;8.406;2022-09-16T15:19:50;13.70;99.90
3408;DHT22;1717;50.240;8.406;2022-09-16T15:22:19;13.60;99.90
3408;DHT22;1717;50.240;8.406;2022-09-16T15:24:50;13.50;99.90
3408;DHT22;1717;50.240;8.406;2022-09-16T15:27:23;13.50;99.90
3408;DHT22;1717;50.240;8.406;2022-09-16T15:29:56;13.30;99.90
3408;DHT22;1717;50.240;8.406;2022-09-16T15:32:24;13.40;99.90
3408;DHT22;1717;50.240;8.406;2022-09-16T15:35:18;13.30;99.90
3408;DHT22;1717;50.240;8.406;2022-09-16T15:37:46;13.40;99.90
3408;DHT22;1717;50.240;8.406;2022-09-16T15:40:22;13.40;99.90
3408;DHT22;1717;50.240;8.406;2022-09-16T15:43:12;13.30;99.90
3408;DHT22;1717;50.240;8.406;2022-09-16T15:45:42;13.30;99.90
3408;DHT22;1717;50.240;8.406;2022-09-16T15:48:15;13.20;99.90
3408;DHT22;1717;50.240;8.406;2022-09-16T15:50:46;13.30;99.90
3408;DHT22;1717;50.240;8.406;2022-09-16T15:53:18;13.30;99.90
3408;DHT22;1717;50.240;8.406;2022-09-16T15:55:55;13.40;99.90
3408;DHT22;1717;50.240;8.406;2022-09-16T15:58:34;13.40;99.90
3408;DHT22;1717;50.240;8.406;2022-09-16T16:01:11;13.50;99.90
3408;DHT22;1717;50.240;8.406;2022-09-16T16:03:51;13.60;99.90
3408;DHT22;1717;50.240;8.406;2022-09-16T16:06:20;13.60;99.90
3408;DHT22;1717;50.240;8.406;2022-09-16T16:08:48;13.70;99.90
3408;DHT22;1717;50.240;8.406;2022-09-16T16:11:17;13.90;99.90
3408;DHT22;1717;50.240;8.406;2022-09-16T16:13:44;14.00;99.90
3408;DHT22;1717;50.240;8.406;2022-09-16T16:16:14;14.00;99.90
3408;DHT22;1717;50.240;8.406;2022-09-16T16:18:44;14.10;99.90
3408;DHT22;1717;50.240;8.406;2022-09-16T16:21:13;14.10;99.90
3408;DHT22;1717;50.240;8.406;2022-09-16T16:23:41;14.10;99.90
3408;DHT22;1717;50.240;8.406;2022-09-16T16:26:09;14.10;99.90
3408;DHT22;1717;50.240;8.406;2022-09-16T16:28:36;14.10;99.90
3408;DHT22;1717;50.240;8.406;2022-09-16T16:31:14;14.00;99.90
3408;DHT22;1717;50.240;8.406;2022-09-16T16:33:42;13.90;99.90
3408;DHT22;1717;50.240;8.406;2022-09-16T16:36:11;14.00;99.90
3408;DHT22;1717;50.240;8.406;2022-09-16T16:38:38;14.00;99.90
3408;DHT22;1717;50.240;8.406;2022-09-16T16:41:05;13.90;99.90
3408;DHT22;1717;50.240;8.406;2022-09-16T16:43:32;13.70;99.90
3408;DHT22;1717;50.240;8.406;2022-09-16T16:46:00;13.60;99.90
3408;DHT22;1717;50.240;8.406;2022-09-16T16:48:28;13.60;99.90
3408;DHT22;1717;50.240;8.406;2022-09-16T16:50:57;13.60;99.90
3408;DHT22;1717;50.240;8.406;2022-09-16T16:53:24;13.60;99.90
3408;DHT22;1717;50.240;8.406;2022-09-16T16:55:52;13.70;99.90
3408;DHT22;1717;50.240;8.406;2022-09-16T16:58:18;13.60;99.90
3408;DHT22;1717;50.240;8.406;2022-09-16T17:00:45;13.50;99.90